sensor_id;sensor_type;location;lat;lon;timestamp;temperature;humidity
70076;DHT22;63241;51.056;3.698;2022-10-18T00:02:18;16.60;99.90
70076;DHT22;63241;51.056;3.698;2022-10-18T00:05:07;16.60;99.90
70076;DHT22;63241;51.056;3.698;2022-10-18T00:07:55;16.70;99.90
70076;DHT22;63241;51.056;3.698;2022-10-18T00:10:43;16.70;99.90
70076;DHT22;63241;51.056;3.698;2022-10-18T00:13:30;16.60;99.90
70076;DHT22;63241;51.056;3.698;2022-10-18T00:16:01;16.60;99.90
70076;DHT22;63241;51.056;3.698;2022-10-18T00:18:48;16.60;99.90
70076;DHT22;63241;51.056;3.698;2022-10-18T00:21:38;16.60;99.90
70076;DHT22;63241;51.056;3.698;2022-10-18T00:24:26;16.60;99.90
70076;DHT22;63241;51.056;3.698;2022-10-18T00:27:14;16.60;99.90
70076;DHT22;63241;51.056;3.698;2022-10-18T00:30:00;16.70;99.90
70076;DHT22;63241;51.056;3.698;2022-10-18T00:32:49;16.60;99.90
70076;DHT22;63241;51.056;3.698;2022-10-18T00:35:39;16.60;99.90
70076;DHT22;63241;51.056;3.698;2022-10-18T00:38:06;16.60;99.90
70076;DHT22;63241;51.056;3.698;2022-10-18T00:40:54;16.60;99.90
70076;DHT22;63241;51.056;3.698;2022-10-18T00:47:03;16.70;99.90
70076;DHT22;63241;51.056;3.698;2022-10-18T00:49:45;16.70;99.90
70076;DHT22;63241;51.056;3.698;2022-10-18T00:52:45;16.70;99.90
70076;DHT22;63241;51.056;3.698;2022-10-18T00:55:31;16.70;99.90
70076;DHT22;63241;51.056;3.698;2022-10-18T00:58:20;16.70;99.90
70076;DHT22;63241;51.056;3.698;2022-10-18T01:01:08;16.70;99.90
70076;DHT22;63241;51.056;3.698;2022-10-18T01:03:57;16.70;99.90
70076;DHT22;63241;51.056;3.698;2022-10-18T01:06:26;16.70;99.90
70076;DHT22;63241;51.056;3.698;2022-10-18T01:09:59;16.70;99.90
70076;DHT22;63241;51.056;3.698;2022-10-18T01:15:40;16.80;99.90
70076;DHT22;63241;51.056;3.698;2022-10-18T01:18:51;16.80;99.90
70076;DHT22;63241;51.056;3.698;2022-10-18T01:28:12;16.80;99.90
70076;DHT22;63241;51.056;3.698;2022-10-18T01:31:05;16.80;99.90
70076;DHT22;63241;51.056;3.698;2022-10-18T01:36:26;16.80;99.90
70076;DHT22;63241;51.056;3.698;2022-10-18T01:39:22;16.80;99.90
70076;DHT22;63241;51.056;3.698;2022-10-18T01:42:10;16.80;99.90
70076;DHT22;63241;51.056;3.698;2022-10-18T01:45:00;16.80;99.90
70076;DHT22;63241;51.056;3.698;2022-10-18T01:47:48;16.90;99.90
70076;DHT22;63241;51.056;3.698;2022-10-18T01:50:37;16.90;99.90
70076;DHT22;63241;51.056;3.698;2022-10-18T01:53:30;16.90;99.90
70076;DHT22;63241;51.056;3.698;2022-10-18T02:09:12;16.80;99.90
70076;DHT22;63241;51.056;3.698;2022-10-18T02:11:57;16.80;99.90
70076;DHT22;63241;51.056;3.698;2022-10-18T02:17:57;16.80;99.90
70076;DHT22;63241;51.056;3.698;2022-10-18T02:20:45;16.80;99.90
70076;DHT22;63241;51.056;3.698;2022-10-18T02:23:34;16.80;99.90
70076;DHT22;63241;51.056;3.698;2022-10-18T02:26:23;16.70;99.90
70076;DHT22;63241;51.056;3.698;2022-10-18T02:29:16;16.70;99.90
70076;DHT22;63241;51.056;3.698;2022-10-18T02:32:05;16.70;99.90
70076;DHT22;63241;51.056;3.698;2022-10-18T02:37:56;16.70;99.90
70076;DHT22;63241;51.056;3.698;2022-10-18T02:40:45;16.70;99.90
70076;DHT22;63241;51.056;3.698;2022-10-18T02:43:34;16.70;99.90
70076;DHT22;63241;51.056;3.698;2022-10-18T02:46:21;16.60;99.90
70076;DHT22;63241;51.056;3.698;2022-10-18T02:49:10;16.60;99.90
70076;DHT22;63241;51.056;3.698;2022-10-18T02:54:24;16.70;99.90
70076;DHT22;63241;51.056;3.698;2022-10-18T02:57:12;16.70;99.90
70076;DHT22;63241;51.056;3.698;2022-10-18T03:00:00;16.70;99.90
70076;DHT22;63241;51.056;3.698;2022-10-18T03:02:48;16.70;99.90
70076;DHT22;63241;51.056;3.698;2022-10-18T03:05:35;16.70;99.90
70076;DHT22;63241;51.056;3.698;2022-10-18T03:08:23;16.70;99.90
70076;DHT22;63241;51.056;3.698;2022-10-18T03:11:10;16.70;99.90
70076;DHT22;63241;51.056;3.698;2022-10-18T03:13:38;16.70;99.90
70076;DHT22;63241;51.056;3.698;2022-10-18T03:16:26;16.70;99.90
70076;DHT22;63241;51.056;3.698;2022-10-18T03:19:12;16.60;99.90
70076;DHT22;63241;51.056;3.698;2022-10-18T03:22:01;16.60;99.90
70076;DHT22;63241;51.056;3.698;2022-10-18T03:24:49;16.60;99.90
70076;DHT22;63241;51.056;3.698;2022-10-18T03:27:39;16.60;99.90
70076;DHT22;63241;51.056;3.698;2022-10-18T03:30:26;16.60;99.90
70076;DHT22;63241;51.056;3.698;2022-10-18T03:32:54;16.60;99.90
70076;DHT22;63241;51.056;3.698;2022-10-18T03:35:42;16.60;99.90
70076;DHT22;63241;51.056;3.698;2022-10-18T03:38:30;16.60;99.90
70076;DHT22;63241;51.056;3.698;2022-10-18T03:41:37;16.60;99.90
70076;DHT22;63241;51.056;3.698;2022-10-18T03:44:25;16.60;99.90
70076;DHT22;63241;51.056;3.698;2022-10-18T03:47:13;16.50;99.90
70076;DHT22;63241;51.056;3.698;2022-10-18T03:50:02;16.50;99.90
70076;DHT22;63241;51.056;3.698;2022-10-18T03:52:52;16.50;99.90
70076;DHT22;63241;51.056;3.698;2022-10-18T03:55:42;16.50;99.90
70076;DHT22;63241;51.056;3.698;2022-10-18T03:58:29;16.50;99.90
70076;DHT22;63241;51.056;3.698;2022-10-18T04:01:17;16.50;99.90
70076;DHT22;63241;51.056;3.698;2022-10-18T04:04:06;16.40;99.90
70076;DHT22;63241;51.056;3.698;2022-10-18T04:06:53;16.30;99.90
70076;DHT22;63241;51.056;3.698;2022-10-18T04:09:20;16.30;99.90
70076;DHT22;63241;51.056;3.698;2022-10-18T04:12:08;16.30;99.90
70076;DHT22;63241;51.056;3.698;2022-10-18T04:14:55;16.20;99.90
70076;DHT22;63241;51.056;3.698;2022-10-18T04:17:44;16.20;99.90
70076;DHT22;63241;51.056;3.698;2022-10-18T04:20:32;16.10;99.90
70076;DHT22;63241;51.056;3.698;2022-10-18T04:23:20;16.10;99.90
70076;DHT22;63241;51.056;3.698;2022-10-18T04:26:17;16.10;99.90
70076;DHT22;63241;51.056;3.698;2022-10-18T04:29:05;15.90;99.90
70076;DHT22;63241;51.056;3.698;2022-10-18T04:31:53;15.90;99.90
70076;DHT22;63241;51.056;3.698;2022-10-18T04:34:41;15.70;99.90
70076;DHT22;63241;51.056;3.698;2022-10-18T04:37:29;15.50;99.90
70076;DHT22;63241;51.056;3.698;2022-10-18T04:40:18;15.40;99.90
70076;DHT22;63241;51.056;3.698;2022-10-18T04:43:07;15.30;99.90
70076;DHT22;63241;51.056;3.698;2022-10-18T04:45:56;15.20;99.90
70076;DHT22;63241;51.056;3.698;2022-10-18T04:48:45;15.20;99.90
70076;DHT22;63241;51.056;3.698;2022-10-18T04:51:14;15.10;99.90
70076;DHT22;63241;51.056;3.698;2022-10-18T04:54:02;15.00;99.90
70076;DHT22;63241;51.056;3.698;2022-10-18T04:56:50;14.90;99.90
70076;DHT22;63241;51.056;3.698;2022-10-18T04:59:38;14.80;99.90
70076;DHT22;63241;51.056;3.698;2022-10-18T05:02:26;14.80;99.90
70076;DHT22;63241;51.056;3.698;2022-10-18T05:05:18;14.70;99.90
70076;DHT22;63241;51.056;3.698;2022-10-18T05:08:05;14.70;99.90
70076;DHT22;63241;51.056;3.698;2022-10-18T05:10:55;14.60;99.90
70076;DHT22;63241;51.056;3.698;2022-10-18T05:17:24;14.40;99.90
70076;DHT22;63241;51.056;3.698;2022-10-18T05:20:12;14.30;99.90
70076;DHT22;63241;51.056;3.698;2022-10-18T05:22:58;14.20;99.90
70076;DHT22;63241;51.056;3.698;2022-10-18T05:25:47;14.20;99.90
70076;DHT22;63241;51.056;3.698;2022-10-18T05:28:35;14.10;99.90
70076;DHT22;63241;51.056;3.698;2022-10-18T05:31:26;14.10;99.90
70076;DHT22;63241;51.056;3.698;2022-10-18T05:34:18;14.10;99.90
70076;DHT22;63241;51.056;3.698;2022-10-18T05:37:05;14.00;99.90
70076;DHT22;63241;51.056;3.698;2022-10-18T05:39:53;13.90;99.90
70076;DHT22;63241;51.056;3.698;2022-10-18T05:42:41;13.90;99.90
70076;DHT22;63241;51.056;3.698;2022-10-18T05:45:30;13.80;99.90
70076;DHT22;63241;51.056;3.698;2022-10-18T05:48:18;13.80;99.90
70076;DHT22;63241;51.056;3.698;2022-10-18T05:51:06;13.80;99.90
70076;DHT22;63241;51.056;3.698;2022-10-18T05:53:54;13.70;99.90
70076;DHT22;63241;51.056;3.698;2022-10-18T05:56:42;13.70;99.90
70076;DHT22;63241;51.056;3.698;2022-10-18T05:59:29;13.70;99.90
70076;DHT22;63241;51.056;3.698;2022-10-18T06:02:17;13.70;99.90
70076;DHT22;63241;51.056;3.698;2022-10-18T06:05:05;13.60;99.90
70076;DHT22;63241;51.056;3.698;2022-10-18T06:07:53;13.60;99.90
70076;DHT22;63241;51.056;3.698;2022-10-18T06:10:48;13.60;99.90
70076;DHT22;63241;51.056;3.698;2022-10-18T06:13:10;13.50;99.90
70076;DHT22;63241;51.056;3.698;2022-10-18T06:15:59;13.50;99.90
70076;DHT22;63241;51.056;3.698;2022-10-18T06:18:48;13.50;99.90
70076;DHT22;63241;51.056;3.698;2022-10-18T06:21:39;13.50;99.90
70076;DHT22;63241;51.056;3.698;2022-10-18T06:24:27;13.50;99.90
70076;DHT22;63241;51.056;3.698;2022-10-18T06:27:15;13.50;99.90
70076;DHT22;63241;51.056;3.698;2022-10-18T06:30:05;13.50;99.90
70076;DHT22;63241;51.056;3.698;2022-10-18T06:32:33;13.50;99.90
70076;DHT22;63241;51.056;3.698;2022-10-18T06:35:26;13.50;99.90
70076;DHT22;63241;51.056;3.698;2022-10-18T06:38:14;13.60;99.90
70076;DHT22;63241;51.056;3.698;2022-10-18T06:41:05;13.60;99.90
70076;DHT22;63241;51.056;3.698;2022-10-18T06:43:53;13.60;99.90
70076;DHT22;63241;51.056;3.698;2022-10-18T06:46:44;13.60;99.90
70076;DHT22;63241;51.056;3.698;2022-10-18T06:49:36;13.60;99.90
70076;DHT22;63241;51.056;3.698;2022-10-18T06:52:25;13.60;99.90
70076;DHT22;63241;51.056;3.698;2022-10-18T06:55:13;13.60;99.90
70076;DHT22;63241;51.056;3.698;2022-10-18T06:58:01;13.70;99.90
70076;DHT22;63241;51.056;3.698;2022-10-18T07:00:32;13.70;99.90
70076;DHT22;63241;51.056;3.698;2022-10-18T07:03:18;13.70;99.90
70076;DHT22;63241;51.056;3.698;2022-10-18T07:06:11;13.80;99.90
70076;DHT22;63241;51.056;3.698;2022-10-18T07:08:58;13.80;99.90
70076;DHT22;63241;51.056;3.698;2022-10-18T07:11:46;13.90;99.90
70076;DHT22;63241;51.056;3.698;2022-10-18T07:14:36;14.10;99.90
70076;DHT22;63241;51.056;3.698;2022-10-18T07:17:26;14.30;99.90
70076;DHT22;63241;51.056;3.698;2022-10-18T07:20:17;14.50;99.90
70076;DHT22;63241;51.056;3.698;2022-10-18T07:23:08;14.60;99.90
70076;DHT22;63241;51.056;3.698;2022-10-18T07:25:56;14.80;99.90
70076;DHT22;63241;51.056;3.698;2022-10-18T07:28:47;14.80;99.90
70076;DHT22;63241;51.056;3.698;2022-10-18T07:31:34;14.90;99.90
70076;DHT22;63241;51.056;3.698;2022-10-18T07:34:23;15.00;99.90
70076;DHT22;63241;51.056;3.698;2022-10-18T07:37:12;15.00;99.90
70076;DHT22;63241;51.056;3.698;2022-10-18T07:40:03;15.20;99.90
70076;DHT22;63241;51.056;3.698;2022-10-18T07:42:33;15.30;99.90
70076;DHT22;63241;51.056;3.698;2022-10-18T07:45:21;15.40;99.90
70076;DHT22;63241;51.056;3.698;2022-10-18T07:48:09;15.60;99.90
70076;DHT22;63241;51.056;3.698;2022-10-18T07:50:59;15.80;99.90
70076;DHT22;63241;51.056;3.698;2022-10-18T07:53:47;16.00;99.90
70076;DHT22;63241;51.056;3.698;2022-10-18T07:56:35;17.80;99.90
70076;DHT22;63241;51.056;3.698;2022-10-18T07:59:22;20.40;99.90
70076;DHT22;63241;51.056;3.698;2022-10-18T08:02:10;22.40;99.90
70076;DHT22;63241;51.056;3.698;2022-10-18T08:04:38;24.10;99.90
70076;DHT22;63241;51.056;3.698;2022-10-18T08:07:28;25.10;99.90
70076;DHT22;63241;51.056;3.698;2022-10-18T08:10:16;26.10;99.90
70076;DHT22;63241;51.056;3.698;2022-10-18T08:13:04;27.00;99.90
70076;DHT22;63241;51.056;3.698;2022-10-18T08:15:58;28.20;97.50
70076;DHT22;63241;51.056;3.698;2022-10-18T08:18:43;29.20;91.90
70076;DHT22;63241;51.056;3.698;2022-10-18T08:21:11;30.30;88.70
70076;DHT22;63241;51.056;3.698;2022-10-18T08:23:59;31.10;85.10
70076;DHT22;63241;51.056;3.698;2022-10-18T08:26:48;32.00;79.30
70076;DHT22;63241;51.056;3.698;2022-10-18T08:29:36;32.40;71.20
70076;DHT22;63241;51.056;3.698;2022-10-18T08:32:24;32.90;69.00
70076;DHT22;63241;51.056;3.698;2022-10-18T08:35:12;33.40;67.60
70076;DHT22;63241;51.056;3.698;2022-10-18T08:38:02;33.90;62.10
70076;DHT22;63241;51.056;3.698;2022-10-18T08:40:30;34.50;63.80
70076;DHT22;63241;51.056;3.698;2022-10-18T08:43:27;34.70;58.40
70076;DHT22;63241;51.056;3.698;2022-10-18T08:46:14;34.70;57.50
70076;DHT22;63241;51.056;3.698;2022-10-18T08:49:02;35.00;56.30
70076;DHT22;63241;51.056;3.698;2022-10-18T08:51:51;35.40;55.30
70076;DHT22;63241;51.056;3.698;2022-10-18T08:57:52;35.30;51.30
70076;DHT22;63241;51.056;3.698;2022-10-18T09:00:43;35.90;52.90
70076;DHT22;63241;51.056;3.698;2022-10-18T09:16:46;35.80;47.80
70076;DHT22;63241;51.056;3.698;2022-10-18T09:26:04;36.90;46.60
70076;DHT22;63241;51.056;3.698;2022-10-18T09:38:12;35.00;45.50
70076;DHT22;63241;51.056;3.698;2022-10-18T09:44:08;35.90;43.50
70076;DHT22;63241;51.056;3.698;2022-10-18T09:47:09;36.40;44.90
70076;DHT22;63241;51.056;3.698;2022-10-18T09:50:04;36.30;42.80
70076;DHT22;63241;51.056;3.698;2022-10-18T09:53:05;36.70;43.90
70076;DHT22;63241;51.056;3.698;2022-10-18T09:58:54;34.40;42.80
70076;DHT22;63241;51.056;3.698;2022-10-18T10:01:43;34.80;43.70
70076;DHT22;63241;51.056;3.698;2022-10-18T10:04:34;34.10;42.50
70076;DHT22;63241;51.056;3.698;2022-10-18T10:10:33;33.40;43.70
70076;DHT22;63241;51.056;3.698;2022-10-18T10:13:25;34.30;44.00
70076;DHT22;63241;51.056;3.698;2022-10-18T10:16:13;33.50;41.50
70076;DHT22;63241;51.056;3.698;2022-10-18T10:19:00;32.80;43.60
70076;DHT22;63241;51.056;3.698;2022-10-18T10:21:50;31.60;44.00
70076;DHT22;63241;51.056;3.698;2022-10-18T10:24:51;31.40;47.60
70076;DHT22;63241;51.056;3.698;2022-10-18T10:27:45;32.50;46.60
70076;DHT22;63241;51.056;3.698;2022-10-18T10:30:35;33.80;44.00
70076;DHT22;63241;51.056;3.698;2022-10-18T10:33:29;34.60;40.90
70076;DHT22;63241;51.056;3.698;2022-10-18T10:36:19;34.20;38.70
70076;DHT22;63241;51.056;3.698;2022-10-18T10:39:16;33.10;37.60
70076;DHT22;63241;51.056;3.698;2022-10-18T10:41:53;32.60;40.60
70076;DHT22;63241;51.056;3.698;2022-10-18T10:44:47;33.30;41.00
70076;DHT22;63241;51.056;3.698;2022-10-18T10:47:32;32.50;38.70
70076;DHT22;63241;51.056;3.698;2022-10-18T10:50:27;34.00;39.50
70076;DHT22;63241;51.056;3.698;2022-10-18T10:53:34;34.40;37.40
70076;DHT22;63241;51.056;3.698;2022-10-18T10:59:46;34.20;38.40
70076;DHT22;63241;51.056;3.698;2022-10-18T11:02:36;33.70;38.10
70076;DHT22;63241;51.056;3.698;2022-10-18T11:05:27;34.00;38.70
70076;DHT22;63241;51.056;3.698;2022-10-18T11:08:18;34.10;36.90
70076;DHT22;63241;51.056;3.698;2022-10-18T11:11:31;34.80;37.40
70076;DHT22;63241;51.056;3.698;2022-10-18T11:14:25;34.70;35.50
70076;DHT22;63241;51.056;3.698;2022-10-18T11:21:09;34.10;36.50
70076;DHT22;63241;51.056;3.698;2022-10-18T11:24:00;34.40;35.40
70076;DHT22;63241;51.056;3.698;2022-10-18T11:27:01;34.70;34.50
70076;DHT22;63241;51.056;3.698;2022-10-18T11:35:34;33.80;34.70
70076;DHT22;63241;51.056;3.698;2022-10-18T11:38:44;34.30;33.80
70076;DHT22;63241;51.056;3.698;2022-10-18T11:41:44;33.80;34.60
70076;DHT22;63241;51.056;3.698;2022-10-18T11:44:58;34.20;34.40
70076;DHT22;63241;51.056;3.698;2022-10-18T11:50:58;35.00;34.60
70076;DHT22;63241;51.056;3.698;2022-10-18T11:57:09;34.20;34.30
70076;DHT22;63241;51.056;3.698;2022-10-18T12:00:27;34.00;34.00
70076;DHT22;63241;51.056;3.698;2022-10-18T12:06:14;33.30;34.40
70076;DHT22;63241;51.056;3.698;2022-10-18T12:09:21;33.80;36.90
70076;DHT22;63241;51.056;3.698;2022-10-18T12:11:49;34.30;34.30
70076;DHT22;63241;51.056;3.698;2022-10-18T12:14:41;33.80;35.50
70076;DHT22;63241;51.056;3.698;2022-10-18T12:17:49;33.00;35.50
70076;DHT22;63241;51.056;3.698;2022-10-18T12:20:34;32.00;37.60
70076;DHT22;63241;51.056;3.698;2022-10-18T12:26:19;33.50;36.80
70076;DHT22;63241;51.056;3.698;2022-10-18T12:29:20;33.10;35.80
70076;DHT22;63241;51.056;3.698;2022-10-18T12:32:14;32.70;36.00
70076;DHT22;63241;51.056;3.698;2022-10-18T12:35:10;32.70;36.70
70076;DHT22;63241;51.056;3.698;2022-10-18T12:38:24;33.00;36.00
70076;DHT22;63241;51.056;3.698;2022-10-18T12:41:23;32.90;35.90
70076;DHT22;63241;51.056;3.698;2022-10-18T12:44:04;33.10;36.70
70076;DHT22;63241;51.056;3.698;2022-10-18T12:46:55;32.60;36.90
70076;DHT22;63241;51.056;3.698;2022-10-18T12:49:43;32.50;37.30
70076;DHT22;63241;51.056;3.698;2022-10-18T12:52:30;32.10;38.20
70076;DHT22;63241;51.056;3.698;2022-10-18T12:58:20;32.90;38.00
70076;DHT22;63241;51.056;3.698;2022-10-18T13:01:10;33.30;37.30
70076;DHT22;63241;51.056;3.698;2022-10-18T13:03:57;32.40;37.00
70076;DHT22;63241;51.056;3.698;2022-10-18T13:06:23;31.10;38.80
70076;DHT22;63241;51.056;3.698;2022-10-18T13:09:19;30.80;40.20
70076;DHT22;63241;51.056;3.698;2022-10-18T13:15:16;31.20;39.70
70076;DHT22;63241;51.056;3.698;2022-10-18T13:27:25;31.00;40.10
70076;DHT22;63241;51.056;3.698;2022-10-18T13:30:30;31.10;40.40
70076;DHT22;63241;51.056;3.698;2022-10-18T13:36:23;31.90;39.10
70076;DHT22;63241;51.056;3.698;2022-10-18T13:39:19;31.70;39.10
70076;DHT22;63241;51.056;3.698;2022-10-18T13:42:30;31.00;38.60
70076;DHT22;63241;51.056;3.698;2022-10-18T13:51:36;30.40;42.00
70076;DHT22;63241;51.056;3.698;2022-10-18T13:57:42;30.50;41.70
70076;DHT22;63241;51.056;3.698;2022-10-18T14:00:42;30.10;41.40
70076;DHT22;63241;51.056;3.698;2022-10-18T14:06:32;30.20;42.20
70076;DHT22;63241;51.056;3.698;2022-10-18T14:09:25;30.00;41.70
70076;DHT22;63241;51.056;3.698;2022-10-18T14:12:19;30.10;42.10
70076;DHT22;63241;51.056;3.698;2022-10-18T14:15:17;29.60;41.40
70076;DHT22;63241;51.056;3.698;2022-10-18T14:18:29;29.00;43.20
70076;DHT22;63241;51.056;3.698;2022-10-18T14:21:17;28.70;42.90
70076;DHT22;63241;51.056;3.698;2022-10-18T14:24:02;28.30;43.40
70076;DHT22;63241;51.056;3.698;2022-10-18T14:26:31;28.10;44.00
70076;DHT22;63241;51.056;3.698;2022-10-18T14:29:19;28.30;44.90
70076;DHT22;63241;51.056;3.698;2022-10-18T14:32:19;27.70;44.30
70076;DHT22;63241;51.056;3.698;2022-10-18T14:35:01;27.40;46.20
70076;DHT22;63241;51.056;3.698;2022-10-18T14:37:51;27.00;46.50
70076;DHT22;63241;51.056;3.698;2022-10-18T14:40:40;26.90;47.10
70076;DHT22;63241;51.056;3.698;2022-10-18T14:43:36;26.50;47.30
70076;DHT22;63241;51.056;3.698;2022-10-18T14:46:26;26.20;48.00
70076;DHT22;63241;51.056;3.698;2022-10-18T14:49:15;25.50;49.10
70076;DHT22;63241;51.056;3.698;2022-10-18T14:52:04;25.30;50.30
70076;DHT22;63241;51.056;3.698;2022-10-18T14:54:55;24.90;51.40
70076;DHT22;63241;51.056;3.698;2022-10-18T14:57:45;24.40;51.50
70076;DHT22;63241;51.056;3.698;2022-10-18T15:00:35;24.10;52.70
70076;DHT22;63241;51.056;3.698;2022-10-18T15:03:27;23.70;53.70
70076;DHT22;63241;51.056;3.698;2022-10-18T15:06:19;23.40;54.90
70076;DHT22;63241;51.056;3.698;2022-10-18T15:09:10;23.00;55.30
70076;DHT22;63241;51.056;3.698;2022-10-18T15:11:57;22.60;56.80
70076;DHT22;63241;51.056;3.698;2022-10-18T15:14:46;22.30;58.00
70076;DHT22;63241;51.056;3.698;2022-10-18T15:17:34;22.20;58.10
70076;DHT22;63241;51.056;3.698;2022-10-18T15:20:34;21.90;58.50
70076;DHT22;63241;51.056;3.698;2022-10-18T15:23:40;21.60;58.50
70076;DHT22;63241;51.056;3.698;2022-10-18T15:26:29;21.40;58.60
70076;DHT22;63241;51.056;3.698;2022-10-18T15:29:18;21.30;59.90
70076;DHT22;63241;51.056;3.698;2022-10-18T15:32:18;21.10;60.30
70076;DHT22;63241;51.056;3.698;2022-10-18T15:35:19;20.80;60.50
70076;DHT22;63241;51.056;3.698;2022-10-18T15:38:23;20.70;61.00
70076;DHT22;63241;51.056;3.698;2022-10-18T15:44:24;20.30;59.60
70076;DHT22;63241;51.056;3.698;2022-10-18T15:47:17;20.20;62.40
70076;DHT22;63241;51.056;3.698;2022-10-18T15:52:39;19.90;64.10
70076;DHT22;63241;51.056;3.698;2022-10-18T15:55:44;19.80;64.60
70076;DHT22;63241;51.056;3.698;2022-10-18T15:58:43;19.70;65.30
70076;DHT22;63241;51.056;3.698;2022-10-18T16:04:42;19.50;65.40
70076;DHT22;63241;51.056;3.698;2022-10-18T16:07:31;19.40;65.20
70076;DHT22;63241;51.056;3.698;2022-10-18T16:10:20;19.30;65.90
70076;DHT22;63241;51.056;3.698;2022-10-18T16:13:08;19.10;66.00
70076;DHT22;63241;51.056;3.698;2022-10-18T16:15:58;19.00;67.60
70076;DHT22;63241;51.056;3.698;2022-10-18T16:18:47;18.90;67.70
70076;DHT22;63241;51.056;3.698;2022-10-18T16:21:38;18.80;66.60
70076;DHT22;63241;51.056;3.698;2022-10-18T16:24:26;18.70;67.00
70076;DHT22;63241;51.056;3.698;2022-10-18T16:27:14;18.60;67.30
70076;DHT22;63241;51.056;3.698;2022-10-18T16:33:06;18.30;68.70
70076;DHT22;63241;51.056;3.698;2022-10-18T16:35:54;18.10;70.50
70076;DHT22;63241;51.056;3.698;2022-10-18T16:38:43;18.00;70.60
70076;DHT22;63241;51.056;3.698;2022-10-18T16:41:31;17.90;71.00
70076;DHT22;63241;51.056;3.698;2022-10-18T16:44:22;17.90;71.50
70076;DHT22;63241;51.056;3.698;2022-10-18T16:47:10;17.80;71.70
70076;DHT22;63241;51.056;3.698;2022-10-18T16:53:07;17.60;73.70
70076;DHT22;63241;51.056;3.698;2022-10-18T16:55:58;17.50;73.70
70076;DHT22;63241;51.056;3.698;2022-10-18T16:58:46;17.40;74.70
70076;DHT22;63241;51.056;3.698;2022-10-18T17:01:34;17.30;75.70
70076;DHT22;63241;51.056;3.698;2022-10-18T17:07:31;17.00;77.30
70076;DHT22;63241;51.056;3.698;2022-10-18T17:10:20;16.90;77.50
70076;DHT22;63241;51.056;3.698;2022-10-18T17:13:08;16.80;78.50
70076;DHT22;63241;51.056;3.698;2022-10-18T17:15:55;16.80;79.40
70076;DHT22;63241;51.056;3.698;2022-10-18T17:22:24;16.60;81.20
70076;DHT22;63241;51.056;3.698;2022-10-18T17:25:12;16.50;81.30
70076;DHT22;63241;51.056;3.698;2022-10-18T17:27:59;16.40;82.70
70076;DHT22;63241;51.056;3.698;2022-10-18T17:30:47;16.40;83.70
70076;DHT22;63241;51.056;3.698;2022-10-18T17:33:37;16.30;83.90
70076;DHT22;63241;51.056;3.698;2022-10-18T17:36:06;16.30;84.70
70076;DHT22;63241;51.056;3.698;2022-10-18T17:38:56;16.20;85.60
70076;DHT22;63241;51.056;3.698;2022-10-18T17:41:46;16.10;85.80
70076;DHT22;63241;51.056;3.698;2022-10-18T17:44:34;16.10;87.00
70076;DHT22;63241;51.056;3.698;2022-10-18T17:47:22;16.00;87.80
70076;DHT22;63241;51.056;3.698;2022-10-18T17:50:10;16.00;88.20
70076;DHT22;63241;51.056;3.698;2022-10-18T17:52:59;15.90;88.00
70076;DHT22;63241;51.056;3.698;2022-10-18T17:55:48;15.90;88.00
70076;DHT22;63241;51.056;3.698;2022-10-18T17:58:16;15.90;88.00
70076;DHT22;63241;51.056;3.698;2022-10-18T18:01:12;15.80;87.40
70076;DHT22;63241;51.056;3.698;2022-10-18T18:04:01;15.70;87.30
70076;DHT22;63241;51.056;3.698;2022-10-18T18:06:49;15.70;87.50
70076;DHT22;63241;51.056;3.698;2022-10-18T18:09:37;15.60;87.10
70076;DHT22;63241;51.056;3.698;2022-10-18T18:12:25;15.60;86.60
70076;DHT22;63241;51.056;3.698;2022-10-18T18:15:13;15.60;86.80
70076;DHT22;63241;51.056;3.698;2022-10-18T18:17:42;15.50;86.20
70076;DHT22;63241;51.056;3.698;2022-10-18T18:20:30;15.50;86.00
70076;DHT22;63241;51.056;3.698;2022-10-18T18:23:18;15.40;85.50
70076;DHT22;63241;51.056;3.698;2022-10-18T18:26:06;15.40;85.80
70076;DHT22;63241;51.056;3.698;2022-10-18T18:28:54;15.40;86.10
70076;DHT22;63241;51.056;3.698;2022-10-18T18:31:42;15.30;85.60
70076;DHT22;63241;51.056;3.698;2022-10-18T18:34:10;15.30;86.00
70076;DHT22;63241;51.056;3.698;2022-10-18T18:36:58;15.20;86.50
70076;DHT22;63241;51.056;3.698;2022-10-18T18:39:47;15.20;85.90
70076;DHT22;63241;51.056;3.698;2022-10-18T18:42:35;15.10;85.90
70076;DHT22;63241;51.056;3.698;2022-10-18T18:45:22;15.10;86.40
70076;DHT22;63241;51.056;3.698;2022-10-18T18:48:10;15.10;86.30
70076;DHT22;63241;51.056;3.698;2022-10-18T18:51:01;15.00;86.10
70076;DHT22;63241;51.056;3.698;2022-10-18T18:53:49;15.00;86.60
70076;DHT22;63241;51.056;3.698;2022-10-18T18:56:38;15.00;86.90
70076;DHT22;63241;51.056;3.698;2022-10-18T18:59:27;14.90;87.10
70076;DHT22;63241;51.056;3.698;2022-10-18T19:02:15;14.90;87.50
70076;DHT22;63241;51.056;3.698;2022-10-18T19:05:03;14.90;88.20
70076;DHT22;63241;51.056;3.698;2022-10-18T19:07:52;14.80;88.60
70076;DHT22;63241;51.056;3.698;2022-10-18T19:10:40;14.80;88.80
70076;DHT22;63241;51.056;3.698;2022-10-18T19:13:28;14.70;89.50
70076;DHT22;63241;51.056;3.698;2022-10-18T19:22:19;14.60;90.20
70076;DHT22;63241;51.056;3.698;2022-10-18T19:25:08;14.60;90.50
70076;DHT22;63241;51.056;3.698;2022-10-18T19:27:55;14.50;90.90
70076;DHT22;63241;51.056;3.698;2022-10-18T19:30:44;14.40;91.00
70076;DHT22;63241;51.056;3.698;2022-10-18T19:33:35;14.40;91.40
70076;DHT22;63241;51.056;3.698;2022-10-18T19:36:23;14.40;91.40
70076;DHT22;63241;51.056;3.698;2022-10-18T19:39:16;14.40;91.60
70076;DHT22;63241;51.056;3.698;2022-10-18T19:42:09;14.30;91.70
70076;DHT22;63241;51.056;3.698;2022-10-18T19:44:57;14.30;92.00
70076;DHT22;63241;51.056;3.698;2022-10-18T19:47:45;14.20;92.20
70076;DHT22;63241;51.056;3.698;2022-10-18T19:50:34;14.20;92.40
70076;DHT22;63241;51.056;3.698;2022-10-18T19:53:23;14.20;92.80
70076;DHT22;63241;51.056;3.698;2022-10-18T19:56:22;14.10;92.90
70076;DHT22;63241;51.056;3.698;2022-10-18T19:59:01;14.10;93.20
70076;DHT22;63241;51.056;3.698;2022-10-18T20:01:49;14.00;93.50
70076;DHT22;63241;51.056;3.698;2022-10-18T20:04:37;14.00;93.90
70076;DHT22;63241;51.056;3.698;2022-10-18T20:07:05;13.90;94.10
70076;DHT22;63241;51.056;3.698;2022-10-18T20:09:53;13.90;94.40
70076;DHT22;63241;51.056;3.698;2022-10-18T20:12:42;13.80;94.60
70076;DHT22;63241;51.056;3.698;2022-10-18T20:15:31;13.70;95.10
70076;DHT22;63241;51.056;3.698;2022-10-18T20:18:19;13.70;95.40
70076;DHT22;63241;51.056;3.698;2022-10-18T20:21:08;13.70;95.80
70076;DHT22;63241;51.056;3.698;2022-10-18T20:23:57;13.70;95.90
70076;DHT22;63241;51.056;3.698;2022-10-18T20:26:45;13.70;96.10
70076;DHT22;63241;51.056;3.698;2022-10-18T20:29:34;13.60;96.50
70076;DHT22;63241;51.056;3.698;2022-10-18T20:32:22;13.60;96.80
70076;DHT22;63241;51.056;3.698;2022-10-18T20:35:10;13.50;97.30